Time;durP1;ratioP1;P1;durP2;ratioP2;P2;SDS_P1;SDS_P2;PMS_P1;PMS_P2;Temp;Humidity;BMP_temperature;BMP_pressure;BME280_temperature;BME280_humidity;BME280_pressure;Samples;Min_cycle;Max_cycle;Signal;HPM_P1;HPM_P2
2023/01/29 00:01:39;;;;;;;;;;;;;;;-1.96;79.80;99941.91;4987087;28;19958;-65
2023/01/29 00:04:05;;;;;;;;;;;;;;;-2.09;79.68;99944.41;4984785;28;19999;-65
2023/01/29 00:06:31;;;;;;;;;;;;;;;-2.33;79.71;99927.66;4979528;28;20386;-65
2023/01/29 00:08:57;;;;;;;;;;;;;;;-2.33;79.70;99947.22;4985300;28;20081;-64
2023/01/29 00:11:24;;;;;;;;;;;;;;;-2.34;79.51;99940.22;4986259;28;20401;-65
2023/01/29 00:13:50;;;;;;;;;;;;;;;-2.33;79.28;99938.38;4977978;28;19987;-66
2023/01/29 00:16:17;;;;;;;;;;;;;;;-2.24;78.79;99934.56;4985137;28;19929;-65
2023/01/29 00:18:43;;;;;;;;;;;;;;;-2.20;78.43;99933.16;4988504;28;19996;-65
2023/01/29 00:21:09;;;;;;;;;;;;;;;-2.17;78.12;99938.16;4988960;28;20397;-66
2023/01/29 00:23:35;;;;;;;;;;;;;;;-2.11;77.68;99927.72;4987962;28;19929;-64
2023/01/29 00:26:01;;;;;;;;;;;;;;;-2.11;77.44;99935.75;4986508;28;20361;-64
2023/01/29 00:28:26;;;;;;;;;;;;;;;-2.10;77.21;99930.22;4976780;28;19937;-64
2023/01/29 00:30:52;;;;;;;;;;;;;;;-2.12;77.18;99932.22;4970325;28;20033;-64
2023/01/29 00:33:19;;;;;;;;;;;;;;;-2.15;76.78;99928.09;4978902;28;19941;-64
2023/01/29 00:35:45;;;;;;;;;;;;;;;-2.24;76.78;99931.88;4984227;28;19973;-64
2023/01/29 00:38:10;;;;;;;;;;;;;;;-2.28;76.86;99923.38;4969759;28;19930;-64
2023/01/29 00:46:11;;;;;;;;;;;;;;;-2.46;77.17;99920.25;4981202;28;19930;-64
2023/01/29 00:48:38;;;;;;;;;;;;;;;-2.50;77.21;99917.13;4982301;28;19940;-64
2023/01/29 00:51:04;;;;;;;;;;;;;;;-2.47;77.08;99911.41;5005178;28;20369;-64
2023/01/29 00:53:30;;;;;;;;;;;;;;;-2.40;77.13;99916.03;4986884;28;19940;-64
2023/01/29 00:55:56;;;;;;;;;;;;;;;-2.41;77.02;99907.16;5004648;28;20051;-64
2023/01/29 00:58:27;;;;;;;;;;;;;;;-2.45;77.13;99913.91;4975787;28;20112;-64
2023/01/29 01:00:53;;;;;;;;;;;;;;;-2.51;77.15;99909.28;4986924;28;20037;-63
2023/01/29 01:03:19;;;;;;;;;;;;;;;-2.51;77.39;99899.41;4988099;28;19929;-63
2023/01/29 01:05:47;;;;;;;;;;;;;;;-2.47;77.36;99906.06;4990350;28;20368;-63
2023/01/29 01:10:58;;;;;;;;;;;;;;;-2.58;77.68;99909.19;4983590;28;20472;-63
2023/01/29 01:13:24;;;;;;;;;;;;;;;-2.69;77.94;99905.16;4992109;28;19937;-63
2023/01/29 01:15:49;;;;;;;;;;;;;;;-2.70;78.00;99903.50;4986620;28;19929;-64
2023/01/29 01:18:15;;;;;;;;;;;;;;;-2.60;78.12;99913.91;4985554;28;19941;-63
2023/01/29 01:20:41;;;;;;;;;;;;;;;-2.49;77.81;99907.25;4984875;28;20032;-64
2023/01/29 01:23:08;;;;;;;;;;;;;;;-2.55;77.39;99905.34;4969535;28;19929;-63
2023/01/29 01:25:33;;;;;;;;;;;;;;;-2.74;77.53;99908.38;4988139;28;19930;-65
2023/01/29 01:27:59;;;;;;;;;;;;;;;-2.82;77.93;99916.47;4986711;28;19930;-65
2023/01/29 01:30:25;;;;;;;;;;;;;;;-2.86;78.05;99910.69;4973555;28;19930;-63
2023/01/29 01:32:51;;;;;;;;;;;;;;;-2.90;78.42;99905.88;5029016;28;19929;-63
2023/01/29 01:35:17;;;;;;;;;;;;;;;-2.92;78.57;99913.28;4996951;28;19929;-63
2023/01/29 01:37:43;;;;;;;;;;;;;;;-2.83;78.41;99912.16;4971369;28;20438;-63
2023/01/29 01:40:16;;;;;;;;;;;;;;;-2.84;78.25;99918.53;4991002;28;20044;-64
2023/01/29 01:42:42;;;;;;;;;;;;;;;-2.88;78.76;99912.72;4969439;28;19930;-63
2023/01/29 01:45:16;;;;;;;;;;;;;;;-2.90;78.52;99905.88;4985540;28;19933;-64
2023/01/29 01:47:45;;;;;;;;;;;;;;;-3.04;77.94;99907.53;4986927;28;19988;-63
2023/01/29 01:50:13;;;;;;;;;;;;;;;-3.14;77.43;99903.28;4983381;28;19944;-63
2023/01/29 01:52:41;;;;;;;;;;;;;;;-3.21;77.05;99901.50;5000937;28;19995;-63
2023/01/29 01:55:08;;;;;;;;;;;;;;;-3.22;76.63;99899.84;4984790;28;19941;-63
2023/01/29 01:57:35;;;;;;;;;;;;;;;-3.11;76.34;99898.56;4987389;28;19952;-63
2023/01/29 02:00:09;;;;;;;;;;;;;;;-2.93;76.19;99895.56;4970254;28;19936;-63
2023/01/29 02:10:53;;;;;;;;;;;;;;;-3.11;73.20;99879.84;4968994;28;20081;-64
2023/01/29 02:13:21;;;;;;;;;;;;;;;-3.18;73.44;99875.25;4981958;28;20024;-63
2023/01/29 02:15:47;;;;;;;;;;;;;;;-3.18;73.34;99869.03;5004340;28;20517;-63
2023/01/29 02:18:14;;;;;;;;;;;;;;;-3.21;73.07;99869.41;4986304;28;19929;-64
2023/01/29 02:20:43;;;;;;;;;;;;;;;-3.21;73.13;99870.22;4972790;28;19929;-63
2023/01/29 02:23:33;;;;;;;;;;;;;;;-3.11;72.98;99861.13;4986826;28;19969;-63
2023/01/29 02:26:09;;;;;;;;;;;;;;;-3.10;72.76;99860.94;4982621;28;19930;-63
2023/01/29 02:28:40;;;;;;;;;;;;;;;-3.06;72.74;99854.22;4983372;28;19930;-64
2023/01/29 02:31:09;;;;;;;;;;;;;;;-2.97;72.79;99854.09;4966940;28;19941;-63
2023/01/29 02:33:40;;;;;;;;;;;;;;;-2.96;72.48;99848.56;4969013;28;19929;-63
2023/01/29 02:36:10;;;;;;;;;;;;;;;-2.94;72.52;99851.88;4983842;28;20389;-63
2023/01/29 02:38:39;;;;;;;;;;;;;;;-2.83;72.79;99845.22;5002330;28;19940;-63
2023/01/29 02:41:10;;;;;;;;;;;;;;;-2.73;72.18;99845.78;5004015;28;20227;-63
2023/01/29 02:43:40;;;;;;;;;;;;;;;-2.77;71.60;99841.00;4980883;28;20032;-63
2023/01/29 02:46:10;;;;;;;;;;;;;;;-2.87;71.42;99839.44;4984994;28;19975;-63
2023/01/29 02:48:39;;;;;;;;;;;;;;;-2.92;71.20;99831.13;4984351;28;19933;-64
2023/01/29 02:51:07;;;;;;;;;;;;;;;-2.97;71.39;99827.34;4983924;28;19969;-63
2023/01/29 02:53:37;;;;;;;;;;;;;;;-2.93;72.08;99828.66;4977572;28;20048;-63
2023/01/29 02:56:07;;;;;;;;;;;;;;;-2.93;71.45;99826.78;4986708;28;20234;-63
2023/01/29 02:58:36;;;;;;;;;;;;;;;-2.97;71.43;99827.34;5003874;28;19929;-63
2023/01/29 03:01:03;;;;;;;;;;;;;;;-2.96;71.65;99818.31;5001896;28;20050;-63
2023/01/29 03:03:37;;;;;;;;;;;;;;;-2.96;71.36;99813.78;5004169;28;19952;-65
2023/01/29 03:06:10;;;;;;;;;;;;;;;-2.94;71.55;99813.63;4993627;28;19929;-65
2023/01/29 03:08:42;;;;;;;;;;;;;;;-2.93;71.48;99813.41;4986744;28;19930;-67
2023/01/29 03:11:12;;;;;;;;;;;;;;;-2.94;71.55;99802.91;4987423;28;19934;-65
2023/01/29 03:13:40;;;;;;;;;;;;;;;-2.87;71.48;99793.94;4973818;28;19934;-64
2023/01/29 03:16:09;;;;;;;;;;;;;;;-2.83;71.72;99788.22;4971675;28;19930;-64
2023/01/29 03:18:45;;;;;;;;;;;;;;;-2.73;71.41;99791.44;4982761;28;19988;-65
2023/01/29 03:32:25;;;;;;;;;;;;;;;-2.71;70.02;99778.69;4971417;28;20012;-65
2023/01/29 03:34:56;;;;;;;;;;;;;;;-2.72;69.59;99769.81;4990039;28;19929;-65
2023/01/29 03:37:26;;;;;;;;;;;;;;;-2.73;69.33;99762.00;4985824;28;20028;-65
2023/01/29 03:39:53;;;;;;;;;;;;;;;-2.80;69.02;99756.56;4987013;28;19936;-64
2023/01/29 03:42:22;;;;;;;;;;;;;;;-2.87;68.97;99758.31;4985766;28;19960;-65
2023/01/29 03:44:53;;;;;;;;;;;;;;;-2.84;68.77;99763.28;5003720;28;20443;-65
2023/01/29 03:47:30;;;;;;;;;;;;;;;-2.88;69.03;99756.66;4986505;28;20261;-65
2023/01/29 03:50:01;;;;;;;;;;;;;;;-2.87;69.03;99751.13;4977189;28;19929;-65
2023/01/29 03:52:33;;;;;;;;;;;;;;;-2.87;69.28;99745.78;4981956;28;19930;-65
2023/01/29 03:55:05;;;;;;;;;;;;;;;-2.82;69.17;99739.03;4982087;28;19937;-64
2023/01/29 03:57:36;;;;;;;;;;;;;;;-2.77;68.80;99737.44;4983903;28;20226;-65
2023/01/29 04:00:09;;;;;;;;;;;;;;;-2.79;68.59;99730.59;4969072;28;19929;-65
2023/01/29 04:02:56;;;;;;;;;;;;;;;-2.78;68.77;99724.25;5002507;28;19936;-65
2023/01/29 04:05:26;;;;;;;;;;;;;;;-2.77;68.67;99724.06;4985456;28;19929;-64
2023/01/29 04:08:06;;;;;;;;;;;;;;;-2.80;69.01;99719.09;4975902;28;19952;-64
2023/01/29 04:10:34;;;;;;;;;;;;;;;-2.76;68.64;99722.19;4967869;28;19930;-65
2023/01/29 04:13:02;;;;;;;;;;;;;;;-2.78;68.25;99730.44;5005741;28;19972;-64
2023/01/29 04:15:30;;;;;;;;;;;;;;;-2.89;68.22;99720.22;4990994;28;19937;-66
2023/01/29 04:17:56;;;;;;;;;;;;;;;-2.87;68.38;99712.81;4972564;28;19930;-65
2023/01/29 04:20:50;;;;;;;;;;;;;;;-2.82;68.63;99702.38;4994068;28;19930;-64
2023/01/29 04:23:20;;;;;;;;;;;;;;;-2.83;68.41;99700.72;4973569;28;19960;-65
2023/01/29 04:25:52;;;;;;;;;;;;;;;-2.80;68.58;99707.53;4990667;28;19937;-65
2023/01/29 04:28:21;;;;;;;;;;;;;;;-2.85;69.13;99708.09;4986485;28;20182;-65
2023/01/29 04:30:51;;;;;;;;;;;;;;;-2.85;69.11;99706.28;4986445;28;19929;-66
2023/01/29 04:33:20;;;;;;;;;;;;;;;-2.88;69.14;99698.63;4970563;28;20384;-66
2023/01/29 04:36:04;;;;;;;;;;;;;;;-2.93;69.52;99701.03;4981140;28;20016;-64
2023/01/29 04:38:36;;;;;;;;;;;;;;;-2.93;69.43;99698.34;4989960;28;20015;-65
2023/01/29 04:41:04;;;;;;;;;;;;;;;-2.90;69.34;99691.78;4994091;28;19930;-66
2023/01/29 04:43:34;;;;;;;;;;;;;;;-2.95;69.21;99695.03;5004255;28;19937;-65
2023/01/29 04:46:08;;;;;;;;;;;;;;;-3.03;69.08;99689.81;5008169;28;19995;-65
2023/01/29 04:48:41;;;;;;;;;;;;;;;-3.03;69.20;99692.47;4989065;28;20396;-65
2023/01/29 04:51:12;;;;;;;;;;;;;;;-3.08;69.03;99685.00;4985945;28;19930;-65
2023/01/29 04:53:43;;;;;;;;;;;;;;;-3.06;69.29;99693.69;4987648;28;20305;-66
2023/01/29 04:56:14;;;;;;;;;;;;;;;-3.08;69.32;99689.53;4971567;28;19937;-65
2023/01/29 04:58:43;;;;;;;;;;;;;;;-3.09;69.44;99694.06;4985602;28;19930;-64
2023/01/29 05:01:11;;;;;;;;;;;;;;;-3.08;69.30;99694.88;4978093;28;19937;-65
2023/01/29 05:03:40;;;;;;;;;;;;;;;-3.08;69.09;99684.16;4987416;28;20387;-65
2023/01/29 05:06:07;;;;;;;;;;;;;;;-3.11;69.26;99684.56;4988544;28;19935;-65
2023/01/29 05:08:36;;;;;;;;;;;;;;;-3.18;69.73;99677.28;4995222;28;19988;-64
2023/01/29 05:11:02;;;;;;;;;;;;;;;-3.21;70.19;99682.19;4973742;28;20132;-65
2023/01/29 05:13:30;;;;;;;;;;;;;;;-3.22;70.19;99675.97;4986954;28;20436;-63
2023/01/29 05:15:59;;;;;;;;;;;;;;;-3.14;70.43;99675.03;4986074;28;19930;-64
2023/01/29 05:18:25;;;;;;;;;;;;;;;-3.13;70.11;99676.69;4973021;28;20294;-63
2023/01/29 05:20:51;;;;;;;;;;;;;;;-3.09;70.15;99678.00;4990505;28;19984;-65
2023/01/29 05:23:18;;;;;;;;;;;;;;;-3.11;70.05;99682.72;4985693;28;19936;-64
2023/01/29 05:25:45;;;;;;;;;;;;;;;-3.10;70.15;99692.41;5006788;28;19929;-64
2023/01/29 05:28:17;;;;;;;;;;;;;;;-3.09;70.16;99691.38;5002642;28;19976;-64
2023/01/29 05:30:44;;;;;;;;;;;;;;;-3.10;69.65;99694.22;5004926;28;19957;-64
2023/01/29 05:33:11;;;;;;;;;;;;;;;-3.19;69.97;99693.50;4987489;28;19991;-64
2023/01/29 05:35:37;;;;;;;;;;;;;;;-3.19;70.29;99689.00;4980208;28;19929;-64
2023/01/29 05:38:03;;;;;;;;;;;;;;;-3.19;70.25;99686.34;4967956;28;19937;-64
2023/01/29 05:40:28;;;;;;;;;;;;;;;-3.15;70.38;99689.44;4984298;28;20172;-65
2023/01/29 05:42:56;;;;;;;;;;;;;;;-3.15;70.46;99687.59;4970051;28;20458;-64
2023/01/29 05:45:21;;;;;;;;;;;;;;;-3.22;70.43;99685.88;4983901;28;19930;-64
2023/01/29 05:47:47;;;;;;;;;;;;;;;-3.21;70.77;99692.88;4986432;28;20394;-65
2023/01/29 05:50:14;;;;;;;;;;;;;;;-3.26;70.82;99682.72;4977238;28;19929;-65
2023/01/29 05:52:40;;;;;;;;;;;;;;;-3.22;70.80;99685.88;5008164;28;19959;-64
2023/01/29 05:55:06;;;;;;;;;;;;;;;-3.19;70.83;99689.00;4985176;28;19930;-64
2023/01/29 05:57:32;;;;;;;;;;;;;;;-3.18;70.88;99682.63;4971345;28;19979;-64
2023/01/29 05:59:59;;;;;;;;;;;;;;;-3.16;70.79;99677.09;5004500;28;19933;-65
2023/01/29 06:02:25;;;;;;;;;;;;;;;-3.18;70.77;99682.63;4986403;28;19952;-66
2023/01/29 06:04:51;;;;;;;;;;;;;;;-3.20;70.75;99687.34;5002146;28;20393;-65
2023/01/29 06:07:17;;;;;;;;;;;;;;;-3.20;71.00;99697.22;4985922;28;19975;-65
2023/01/29 06:09:42;;;;;;;;;;;;;;;-3.25;71.26;99691.59;4987085;28;19929;-68
2023/01/29 06:12:08;;;;;;;;;;;;;;;-3.28;71.53;99690.13;5007263;28;20466;-64
2023/01/29 06:14:34;;;;;;;;;;;;;;;-3.29;71.48;99696.47;4989590;28;20401;-64
2023/01/29 06:17:01;;;;;;;;;;;;;;;-3.33;71.78;99698.69;4969819;28;20461;-64
2023/01/29 06:19:27;;;;;;;;;;;;;;;-3.30;71.72;99695.63;4953056;28;19930;-65
2023/01/29 06:21:52;;;;;;;;;;;;;;;-3.34;71.72;99688.19;4970141;28;19930;-65
2023/01/29 06:24:18;;;;;;;;;;;;;;;-3.32;72.05;99681.63;4987300;28;19937;-64
2023/01/29 06:26:44;;;;;;;;;;;;;;;-3.24;72.06;99685.22;4971265;28;19929;-66
2023/01/29 06:29:10;;;;;;;;;;;;;;;-3.23;72.07;99686.88;4998280;28;19936;-65
2023/01/29 06:31:35;;;;;;;;;;;;;;;-3.21;71.87;99687.53;4984672;28;20139;-65
2023/01/29 06:34:03;;;;;;;;;;;;;;;-3.23;71.95;99671.66;4985531;28;20282;-65
2023/01/29 06:36:29;;;;;;;;;;;;;;;-3.32;71.81;99648.72;4978931;28;20020;-64
2023/01/29 06:38:55;;;;;;;;;;;;;;;-3.14;71.36;99669.69;4979187;28;20024;-64
2023/01/29 06:41:24;;;;;;;;;;;;;;;-3.12;71.60;99667.69;5005751;28;20311;-64
2023/01/29 06:43:49;;;;;;;;;;;;;;;-3.08;71.28;99668.13;5005940;28;19933;-64
2023/01/29 06:46:15;;;;;;;;;;;;;;;-3.04;70.93;99662.22;4986244;28;19929;-64
2023/01/29 06:48:41;;;;;;;;;;;;;;;-3.06;70.82;99666.94;4984348;28;20409;-65
2023/01/29 06:51:09;;;;;;;;;;;;;;;-3.10;70.88;99679.03;4982921;28;19936;-64
2023/01/29 06:53:35;;;;;;;;;;;;;;;-3.04;71.15;99664.88;4974839;28;20023;-64
2023/01/29 06:56:01;;;;;;;;;;;;;;;-3.01;70.99;99661.81;4985959;28;20042;-65
2023/01/29 06:58:27;;;;;;;;;;;;;;;-3.01;70.69;99656.47;4991568;28;20389;-64
2023/01/29 07:00:53;;;;;;;;;;;;;;;-3.03;70.48;99660.38;4967856;28;19929;-64
2023/01/29 07:03:18;;;;;;;;;;;;;;;-3.09;70.63;99651.25;4984972;28;19917;-64
2023/01/29 07:05:49;;;;;;;;;;;;;;;-3.11;70.87;99650.63;5000058;28;19938;-64
2023/01/29 07:08:17;;;;;;;;;;;;;;;-3.10;71.04;99649.59;4967438;28;20029;-64
2023/01/29 07:10:42;;;;;;;;;;;;;;;-3.08;71.02;99638.69;4976571;28;19984;-64
2023/01/29 07:13:08;;;;;;;;;;;;;;;-3.06;70.55;99632.16;4986529;28;19929;-64
2023/01/29 07:15:34;;;;;;;;;;;;;;;-3.08;70.82;99633.34;4985538;28;19980;-64
2023/01/29 07:18:01;;;;;;;;;;;;;;;-3.04;70.88;99635.44;5002827;28;19929;-64
2023/01/29 07:20:27;;;;;;;;;;;;;;;-3.03;70.61;99631.75;5000731;28;19929;-65
2023/01/29 07:22:53;;;;;;;;;;;;;;;-3.06;70.80;99636.66;5002912;28;19929;-66
2023/01/29 07:25:20;;;;;;;;;;;;;;;-3.05;70.30;99641.81;4987307;28;19976;-65
2023/01/29 07:27:46;;;;;;;;;;;;;;;-3.09;70.44;99631.69;4986034;28;19929;-64
2023/01/29 07:30:12;;;;;;;;;;;;;;;-3.02;70.36;99629.94;4987668;28;20290;-64
2023/01/29 07:32:38;;;;;;;;;;;;;;;-3.07;70.72;99633.16;4985809;28;20019;-64
2023/01/29 07:35:04;;;;;;;;;;;;;;;-3.04;70.70;99629.28;5000182;28;20040;-64
2023/01/29 07:37:30;;;;;;;;;;;;;;;-2.93;70.09;99635.97;4999074;28;19929;-64
2023/01/29 07:39:55;;;;;;;;;;;;;;;-2.86;69.94;99635.03;4972863;28;19936;-65
2023/01/29 07:42:23;;;;;;;;;;;;;;;-2.81;69.65;99630.94;4996645;28;20319;-65
2023/01/29 07:44:48;;;;;;;;;;;;;;;-2.76;69.74;99634.72;4977453;28;20321;-65
2023/01/29 07:47:14;;;;;;;;;;;;;;;-2.79;69.39;99626.22;4972546;28;19934;-64
2023/01/29 07:49:40;;;;;;;;;;;;;;;-2.93;69.55;99641.34;4990255;28;19929;-64
2023/01/29 07:52:06;;;;;;;;;;;;;;;-3.04;69.95;99638.13;4997793;28;19933;-64
2023/01/29 07:54:31;;;;;;;;;;;;;;;-2.97;69.99;99629.34;4995482;28;20308;-64
2023/01/29 07:56:57;;;;;;;;;;;;;;;-2.88;69.96;99628.19;4995487;28;19930;-66
2023/01/29 07:59:24;;;;;;;;;;;;;;;-2.87;69.94;99629.84;4639939;28;10001141;-65
2023/01/29 08:01:50;;;;;;;;;;;;;;;-2.84;69.99;99618.75;3960688;28;10001107;-65
2023/01/29 08:04:16;;;;;;;;;;;;;;;-2.76;69.65;99624.00;4977812;28;19964;-66
2023/01/29 08:06:41;;;;;;;;;;;;;;;-2.83;69.44;99609.72;4988238;28;19937;-66
2023/01/29 08:09:07;;;;;;;;;;;;;;;-2.73;69.41;99614.78;4966986;28;20020;-65
2023/01/29 08:11:33;;;;;;;;;;;;;;;-2.67;68.56;99616.66;4982760;28;19930;-65
2023/01/29 08:13:59;;;;;;;;;;;;;;;-2.60;68.52;99614.84;4990778;28;20431;-64
2023/01/29 08:16:26;;;;;;;;;;;;;;;-2.43;67.71;99609.22;4990939;28;19929;-64
2023/01/29 08:18:52;;;;;;;;;;;;;;;-2.31;67.15;99601.50;4984357;28;19930;-64
2023/01/29 08:21:18;;;;;;;;;;;;;;;-2.26;66.79;99592.84;4968996;28;19937;-65
2023/01/29 08:23:44;;;;;;;;;;;;;;;-2.26;67.14;99591.03;4987323;28;19929;-68
2023/01/29 08:26:10;;;;;;;;;;;;;;;-2.26;67.13;99596.38;5005312;28;19936;-66
2023/01/29 08:28:37;;;;;;;;;;;;;;;-2.24;67.38;99591.66;4996983;28;19940;-65
2023/01/29 08:31:03;;;;;;;;;;;;;;;-2.23;67.10;99589.81;4980407;28;19976;-64
2023/01/29 08:33:31;;;;;;;;;;;;;;;-2.29;67.67;99592.22;4982393;28;19930;-65
2023/01/29 08:35:57;;;;;;;;;;;;;;;-2.33;68.39;99596.34;4967074;28;19930;-64
2023/01/29 08:38:23;;;;;;;;;;;;;;;-2.30;68.40;99590.56;4998032;28;19936;-65
2023/01/29 08:40:48;;;;;;;;;;;;;;;-2.25;68.42;99586.50;4985011;28;19987;-65
2023/01/29 08:43:14;;;;;;;;;;;;;;;-2.14;68.17;99583.25;4984219;28;19973;-65
2023/01/29 08:45:41;;;;;;;;;;;;;;;-2.19;67.17;99599.09;4984475;28;19937;-65
2023/01/29 08:48:07;;;;;;;;;;;;;;;-2.21;67.20;99596.63;4989654;28;19930;-65
2023/01/29 08:50:35;;;;;;;;;;;;;;;-2.20;67.37;99590.22;4964741;28;19935;-64
2023/01/29 08:53:06;;;;;;;;;;;;;;;-2.22;67.51;99599.50;4977899;28;19929;-64
2023/01/29 08:55:32;;;;;;;;;;;;;;;-2.47;67.41;99557.94;4982335;28;19938;-64
2023/01/29 08:57:57;;;;;;;;;;;;;;;-2.22;67.96;99589.59;4966799;28;20286;-65
2023/01/29 09:00:23;;;;;;;;;;;;;;;-2.20;67.67;99594.78;4964429;28;19930;-64
2023/01/29 09:02:49;;;;;;;;;;;;;;;-2.24;67.29;99585.47;4981018;28;19937;-64
2023/01/29 09:05:15;;;;;;;;;;;;;;;-2.28;67.10;99568.97;4973803;28;19933;-64
2023/01/29 09:07:42;;;;;;;;;;;;;;;-2.25;67.24;99567.75;4969585;28;19930;-65
2023/01/29 09:10:09;;;;;;;;;;;;;;;-2.21;67.30;99577.84;4981465;28;19930;-64
2023/01/29 09:12:34;;;;;;;;;;;;;;;-2.21;67.24;99566.34;4983951;28;19930;-64
2023/01/29 09:15:00;;;;;;;;;;;;;;;-2.19;67.15;99564.28;4984225;28;19930;-64
2023/01/29 09:17:26;;;;;;;;;;;;;;;-2.18;67.12;99561.41;4986140;28;19930;-64
2023/01/29 09:19:52;;;;;;;;;;;;;;;-2.11;66.64;99555.25;4985154;28;20455;-64
2023/01/29 09:22:17;;;;;;;;;;;;;;;-2.08;66.70;99561.06;4985473;28;20654;-64
2023/01/29 09:24:44;;;;;;;;;;;;;;;-2.14;67.11;99560.00;4987384;28;20053;-65
2023/01/29 09:27:10;;;;;;;;;;;;;;;-2.20;68.03;99559.94;4986870;28;20079;-65
2023/01/29 09:29:36;;;;;;;;;;;;;;;-2.21;66.83;99572.50;4989834;28;19941;-67
2023/01/29 09:32:02;;;;;;;;;;;;;;;-2.32;67.29;99560.50;4986266;28;20397;-64
2023/01/29 09:34:28;;;;;;;;;;;;;;;-2.38;67.72;99552.41;4980268;28;20036;-64
2023/01/29 09:36:54;;;;;;;;;;;;;;;-2.43;68.03;99551.16;4966458;28;19930;-65
2023/01/29 09:39:20;;;;;;;;;;;;;;;-2.40;67.99;99533.88;4964267;28;19937;-65
2023/01/29 09:41:52;;;;;;;;;;;;;;;-2.26;68.28;99525.88;4965926;28;20337;-65
2023/01/29 09:44:21;;;;;;;;;;;;;;;-2.14;67.14;99524.31;4966809;28;19930;-66
2023/01/29 09:46:50;;;;;;;;;;;;;;;-2.13;67.50;99523.28;4967562;28;19930;-65
2023/01/29 09:49:20;;;;;;;;;;;;;;;-2.10;66.86;99522.06;4974965;28;19930;-65
2023/01/29 09:51:47;;;;;;;;;;;;;;;-2.07;66.52;99522.50;4988681;28;20355;-65
2023/01/29 09:54:16;;;;;;;;;;;;;;;-2.08;66.02;99518.19;4990696;28;19930;-64
2023/01/29 09:56:42;;;;;;;;;;;;;;;-2.09;66.13;99524.56;5006922;28;19929;-66
2023/01/29 09:59:11;;;;;;;;;;;;;;;-2.11;65.73;99523.91;5004170;28;19929;-65
2023/01/29 10:01:42;;;;;;;;;;;;;;;-2.22;66.47;99514.59;5003809;28;19969;-65
2023/01/29 10:04:23;;;;;;;;;;;;;;;-2.28;66.88;99518.06;4972573;28;19961;-65
2023/01/29 10:07:04;;;;;;;;;;;;;;;-2.31;66.42;99505.88;4988080;28;19969;-65
2023/01/29 10:09:39;;;;;;;;;;;;;;;-2.24;66.08;99500.56;5005632;28;19940;-66
2023/01/29 10:12:11;;;;;;;;;;;;;;;-2.24;65.75;99489.03;4989768;28;19929;-65
2023/01/29 10:14:41;;;;;;;;;;;;;;;-2.22;66.07;99497.72;4990973;28;19929;-65
2023/01/29 10:17:18;;;;;;;;;;;;;;;-2.23;65.74;99488.03;4984846;28;19973;-65
2023/01/29 10:19:51;;;;;;;;;;;;;;;-2.23;65.18;99480.78;4985825;28;19929;-65
2023/01/29 10:22:30;;;;;;;;;;;;;;;-2.26;65.45;99480.34;4988715;28;19961;-64
2023/01/29 10:24:57;;;;;;;;;;;;;;;-2.17;65.55;99476.50;4969869;28;19976;-63
2023/01/29 10:27:26;;;;;;;;;;;;;;;-2.11;65.43;99469.53;4967960;28;19984;-63
2023/01/29 10:29:54;;;;;;;;;;;;;;;-2.07;65.52;99450.16;4986322;28;20415;-64
2023/01/29 10:32:21;;;;;;;;;;;;;;;-2.05;64.61;99439.22;4968495;28;19980;-64
2023/01/29 10:34:48;;;;;;;;;;;;;;;-2.14;64.88;99439.44;4967325;28;20353;-64
2023/01/29 10:37:17;;;;;;;;;;;;;;;-2.22;65.54;99433.41;4986047;28;19937;-63
2023/01/29 10:39:43;;;;;;;;;;;;;;;-2.19;65.21;99443.72;4958399;28;19960;-64
2023/01/29 10:42:17;;;;;;;;;;;;;;;-2.19;65.26;99435.69;4988777;28;19961;-63
2023/01/29 10:44:53;;;;;;;;;;;;;;;-2.11;65.34;99423.97;4988979;28;20036;-65
2023/01/29 10:47:32;;;;;;;;;;;;;;;-2.01;65.18;99416.38;5007688;28;19929;-64
2023/01/29 10:50:04;;;;;;;;;;;;;;;-1.97;64.22;99409.59;5005093;28;20300;-63
2023/01/29 10:52:38;;;;;;;;;;;;;;;-1.98;64.48;99407.09;4987875;28;20427;-63
2023/01/29 10:55:11;;;;;;;;;;;;;;;-2.00;64.46;99416.16;4971234;28;20397;-63
2023/01/29 10:57:45;;;;;;;;;;;;;;;-2.11;64.29;99407.91;4969630;28;19945;-63
2023/01/29 11:00:16;;;;;;;;;;;;;;;-2.15;65.03;99399.44;4987834;28;19953;-66
2023/01/29 11:02:44;;;;;;;;;;;;;;;-2.22;65.76;99410.13;4987980;28;19980;-63
2023/01/29 11:05:18;;;;;;;;;;;;;;;-2.21;65.52;99390.34;4994930;28;19933;-64
2023/01/29 11:07:44;;;;;;;;;;;;;;;-2.16;65.11;99403.97;4640974;28;9999919;-64
2023/01/29 11:10:12;;;;;;;;;;;;;;;-2.22;65.09;99394.03;4968734;28;20031;-64
2023/01/29 11:12:40;;;;;;;;;;;;;;;-2.12;65.20;99390.16;5005083;28;20411;-65
2023/01/29 11:15:15;;;;;;;;;;;;;;;-2.12;64.60;99387.50;5003602;28;20324;-65
2023/01/29 11:17:59;;;;;;;;;;;;;;;-2.16;65.07;99382.53;5003110;28;19976;-63
2023/01/29 11:20:27;;;;;;;;;;;;;;;-2.22;65.04;99385.19;4979490;28;19930;-63
2023/01/29 11:22:54;;;;;;;;;;;;;;;-2.23;65.21;99383.56;4983337;28;19937;-63
2023/01/29 11:25:21;;;;;;;;;;;;;;;-2.22;65.36;99382.53;4965565;28;19934;-63
2023/01/29 11:27:48;;;;;;;;;;;;;;;-2.21;65.19;99384.16;4982884;28;19937;-63
2023/01/29 11:30:16;;;;;;;;;;;;;;;-2.21;64.61;99366.22;4966768;28;19984;-63
2023/01/29 11:32:42;;;;;;;;;;;;;;;-2.20;64.80;99375.09;4976565;28;19934;-64
2023/01/29 11:35:19;;;;;;;;;;;;;;;-2.18;64.99;99389.13;4983246;28;19937;-63
2023/01/29 11:37:46;;;;;;;;;;;;;;;-2.12;64.94;99377.59;4984711;28;20459;-64
2023/01/29 11:40:27;;;;;;;;;;;;;;;-2.06;64.86;99389.34;4969125;28;19930;-64
2023/01/29 11:42:52;;;;;;;;;;;;;;;-2.03;64.47;99376.38;4985439;28;20357;-63
2023/01/29 11:45:24;;;;;;;;;;;;;;;-2.05;64.55;99365.03;4986992;28;19937;-65
2023/01/29 11:47:51;;;;;;;;;;;;;;;-2.06;64.71;99360.72;5001630;28;20557;-65
2023/01/29 11:50:20;;;;;;;;;;;;;;;-2.02;64.77;99364.63;5005490;28;19929;-65
2023/01/29 11:52:48;;;;;;;;;;;;;;;-2.04;64.66;99361.34;4991423;28;20353;-63
2023/01/29 11:55:16;;;;;;;;;;;;;;;-2.07;64.83;99360.91;5006459;28;19965;-65
2023/01/29 11:57:45;;;;;;;;;;;;;;;-2.11;65.14;99359.66;4986269;28;20419;-65
2023/01/29 12:00:19;;;;;;;;;;;;;;;-2.42;65.50;99310.94;4989385;28;19938;-66
2023/01/29 12:02:48;;;;;;;;;;;;;;;-2.09;65.51;99365.66;4958378;28;19936;-64
2023/01/29 12:05:14;;;;;;;;;;;;;;;-2.16;65.56;99362.94;4986465;28;20501;-64
2023/01/29 12:07:41;;;;;;;;;;;;;;;-2.25;66.03;99365.00;4986141;28;19960;-65
2023/01/29 12:10:28;;;;;;;;;;;;;;;-2.35;66.11;99356.50;4987120;28;19930;-66
2023/01/29 12:13:02;;;;;;;;;;;;;;;-2.33;66.56;99360.63;4989997;28;19960;-63
2023/01/29 12:15:28;;;;;;;;;;;;;;;-2.31;66.52;99360.44;5005606;28;20021;-65
2023/01/29 12:18:00;;;;;;;;;;;;;;;-2.32;66.60;99366.84;4999434;28;20391;-63
2023/01/29 12:20:29;;;;;;;;;;;;;;;-2.28;66.62;99352.81;4983240;28;20869;-64
2023/01/29 12:23:00;;;;;;;;;;;;;;;-2.24;66.46;99355.13;4979754;28;19956;-65
2023/01/29 12:25:34;;;;;;;;;;;;;;;-2.26;66.87;99344.59;4985780;28;20401;-65
2023/01/29 12:28:06;;;;;;;;;;;;;;;-2.21;66.63;99338.63;4999276;28;19961;-65
2023/01/29 12:30:35;;;;;;;;;;;;;;;-2.23;66.80;99336.13;5005097;28;20424;-66
2023/01/29 12:33:04;;;;;;;;;;;;;;;-2.16;66.86;99347.72;4972490;28;19934;-64
2023/01/29 12:35:32;;;;;;;;;;;;;;;-2.10;66.68;99339.88;4976018;28;20032;-65
2023/01/29 12:38:01;;;;;;;;;;;;;;;-2.10;66.43;99338.03;4992868;28;19930;-64
2023/01/29 12:40:28;;;;;;;;;;;;;;;-2.10;66.43;99346.09;4996245;28;19930;-64
2023/01/29 12:43:00;;;;;;;;;;;;;;;-2.15;66.76;99340.50;5001229;28;19929;-64
2023/01/29 12:45:27;;;;;;;;;;;;;;;-2.22;66.75;99334.31;5000703;28;19929;-64
2023/01/29 12:47:54;;;;;;;;;;;;;;;-2.35;67.35;99335.91;5001962;28;19936;-64
2023/01/29 12:50:31;;;;;;;;;;;;;;;-2.38;68.03;99336.31;4965642;28;10000157;-64
2023/01/29 12:52:59;;;;;;;;;;;;;;;-2.34;68.05;99340.25;4964229;28;19930;-64
2023/01/29 12:55:27;;;;;;;;;;;;;;;-2.32;68.09;99348.09;4986557;28;19933;-64
2023/01/29 12:57:55;;;;;;;;;;;;;;;-2.33;68.05;99344.56;5007248;28;19983;-64
2023/01/29 13:00:24;;;;;;;;;;;;;;;-2.35;68.31;99337.75;5005987;28;19933;-64
2023/01/29 13:02:54;;;;;;;;;;;;;;;-2.37;68.54;99353.19;5000837;28;19929;-64
2023/01/29 13:05:23;;;;;;;;;;;;;;;-2.42;68.90;99343.91;5007587;28;19929;-64
2023/01/29 13:07:51;;;;;;;;;;;;;;;-2.42;69.22;99335.88;4981796;28;19930;-64
2023/01/29 13:10:19;;;;;;;;;;;;;;;-2.35;69.13;99335.91;4999729;28;19929;-65
2023/01/29 13:12:50;;;;;;;;;;;;;;;-2.32;68.60;99326.66;4997426;28;20356;-65
2023/01/29 13:15:20;;;;;;;;;;;;;;;-2.42;68.83;99329.69;4985959;28;19930;-66
2023/01/29 13:17:49;;;;;;;;;;;;;;;-2.45;69.50;99322.06;4970446;28;20028;-66
2023/01/29 13:20:17;;;;;;;;;;;;;;;-2.40;69.42;99327.66;4989574;28;19937;-65